Time;durP1;ratioP1;P1;durP2;ratioP2;P2;SDS_P1;SDS_P2;PMS_P1;PMS_P2;Temp;Humidity;BMP_temperature;BMP_pressure;BME280_temperature;BME280_humidity;BME280_pressure;Samples;Min_cycle;Max_cycle;Signal;HPM_P1;HPM_P2
2023/06/22 00:02:18;;;;;;;16.40;11.85;;;;;;;-144.87;100.00;61487.56;5022810;28;20026;-72
2023/06/22 00:04:45;;;;;;;16.38;12.45;;;;;;;-144.87;100.00;61487.56;5024846;28;20026;-71
2023/06/22 00:07:11;;;;;;;16.83;13.20;;;;;;;-144.87;100.00;61487.56;5021419;28;20044;-69
2023/06/22 00:09:37;;;;;;;18.25;12.40;;;;;;;-144.87;100.00;61487.56;5025820;28;20391;-69
2023/06/22 00:12:04;;;;;;;19.13;13.45;;;;;;;-144.87;100.00;61487.56;5023853;28;20068;-71
2023/06/22 00:14:30;;;;;;;17.73;13.30;;;;;;;-144.87;100.00;61487.56;5013486;28;20037;-69
2023/06/22 00:16:58;;;;;;;19.63;13.45;;;;;;;-144.87;100.00;61487.56;5025545;28;20054;-70
2023/06/22 00:19:25;;;;;;;18.33;13.18;;;;;;;-144.87;100.00;61487.56;5006886;28;20042;-70
2023/06/22 00:21:54;;;;;;;17.65;13.70;;;;;;;-144.87;100.00;61487.56;5019632;28;20136;-70
2023/06/22 00:24:21;;;;;;;17.58;13.02;;;;;;;-144.87;100.00;61487.56;5032346;28;20034;-70
2023/06/22 00:26:51;;;;;;;15.88;11.93;;;;;;;-144.87;100.00;61487.56;5013005;28;20033;-71
2023/06/22 00:29:18;;;;;;;17.00;12.40;;;;;;;-144.87;100.00;61487.56;5023296;28;20125;-71
2023/06/22 00:31:44;;;;;;;16.42;12.15;;;;;;;-144.87;100.00;61487.56;5020613;28;20044;-70
2023/06/22 00:34:11;;;;;;;17.65;12.80;;;;;;;-144.87;100.00;61487.56;5023366;28;20171;-69
2023/06/22 00:36:37;;;;;;;16.70;12.48;;;;;;;-144.87;100.00;61487.56;5022515;28;20036;-72
2023/06/22 00:39:03;;;;;;;16.42;12.98;;;;;;;-144.87;100.00;61487.56;5025271;28;20398;-72
2023/06/22 00:41:30;;;;;;;18.05;13.45;;;;;;;-144.87;100.00;61487.56;5033113;28;20037;-69
2023/06/22 00:43:57;;;;;;;18.45;13.98;;;;;;;-144.87;100.00;61487.56;5027483;28;20034;-72
2023/06/22 00:46:24;;;;;;;20.52;15.15;;;;;;;-144.87;100.00;61487.56;5009588;28;20253;-70
2023/06/22 00:48:52;;;;;;;19.58;14.73;;;;;;;-144.87;100.00;61487.56;5014857;28;20060;-70
2023/06/22 00:51:20;;;;;;;27.80;17.95;;;;;;;-144.87;100.00;61487.56;5041224;28;20021;-69
2023/06/22 00:53:47;;;;;;;24.00;17.67;;;;;;;-144.87;100.00;61487.56;5023187;28;20068;-70
2023/06/22 00:56:13;;;;;;;30.27;19.45;;;;;;;-144.87;100.00;61487.56;5012300;28;20036;-69
2023/06/22 00:58:41;;;;;;;27.13;18.08;;;;;;;-144.87;100.00;61487.56;5002630;28;20143;-70
2023/06/22 01:01:08;;;;;;;28.25;18.70;;;;;;;-144.87;100.00;61487.56;5011112;28;20045;-70
2023/06/22 01:03:34;;;;;;;31.00;20.38;;;;;;;-144.87;100.00;61487.56;5016391;28;20069;-70
2023/06/22 01:06:10;;;;;;;35.10;21.60;;;;;;;-144.87;100.00;61487.56;5021083;28;20034;-70
2023/06/22 01:09:06;;;;;;;37.47;21.50;;;;;;;-144.87;100.00;61487.56;5030444;28;20068;-70
2023/06/22 01:11:38;;;;;;;33.17;21.45;;;;;;;-144.87;100.00;61487.56;5018465;28;20045;-70
2023/06/22 01:14:12;;;;;;;33.28;21.80;;;;;;;-144.87;100.00;61487.56;5008390;28;20555;-70
2023/06/22 01:16:42;;;;;;;28.42;19.65;;;;;;;-144.87;100.00;61487.56;5008228;28;20049;-70
2023/06/22 01:19:35;;;;;;;31.15;20.27;;;;;;;-144.87;100.00;61487.56;5021790;28;20029;-70
2023/06/22 01:22:05;;;;;;;30.75;20.35;;;;;;;-144.87;100.00;61487.56;5015103;28;20037;-71
2023/06/22 01:24:46;;;;;;;30.25;20.70;;;;;;;-144.87;100.00;61487.56;5035211;28;20070;-67
2023/06/22 01:27:31;;;;;;;27.85;19.33;;;;;;;-144.87;100.00;61487.56;5010572;28;20034;-70
2023/06/22 01:30:05;;;;;;;27.70;20.08;;;;;;;-144.87;100.00;61487.56;5018937;28;20033;-70
2023/06/22 01:32:36;;;;;;;44.65;25.33;;;;;;;-144.87;100.00;61487.56;5021206;28;20128;-71
2023/06/22 01:35:05;;;;;;;38.70;23.75;;;;;;;-144.87;100.00;61487.56;5042152;28;20040;-71
2023/06/22 01:37:34;;;;;;;44.53;25.02;;;;;;;-144.87;100.00;61487.56;5021279;28;20048;-70
2023/06/22 01:40:01;;;;;;;48.03;26.75;;;;;;;-144.87;100.00;61487.56;5015460;28;20116;-70
2023/06/22 01:42:28;;;;;;;52.40;27.10;;;;;;;-144.87;100.00;61487.56;5016856;28;20056;-70
2023/06/22 01:44:54;;;;;;;47.70;27.67;;;;;;;-144.87;100.00;61487.56;5014959;28;20515;-71
2023/06/22 01:47:24;;;;;;;45.50;26.13;;;;;;;-144.87;100.00;61487.56;5006240;28;20601;-71
2023/06/22 01:49:54;;;;;;;47.33;28.27;;;;;;;-144.87;100.00;61487.56;5020882;28;20041;-70
2023/06/22 01:52:21;;;;;;;53.05;28.75;;;;;;;-144.87;100.00;61487.56;5000712;28;20363;-69
2023/06/22 01:54:48;;;;;;;50.47;28.30;;;;;;;-144.87;100.00;61487.56;5020132;28;20044;-71
2023/06/22 01:57:14;;;;;;;49.05;29.42;;;;;;;-144.87;100.00;61487.56;5014960;28;20084;-70
2023/06/22 01:59:57;;;;;;;53.25;30.63;;;;;;;-144.87;100.00;61487.56;5009429;28;20037;-69
2023/06/22 02:02:29;;;;;;;57.83;31.00;;;;;;;-144.87;100.00;61487.56;5022931;28;20091;-69
2023/06/22 02:05:03;;;;;;;59.70;32.80;;;;;;;-144.87;100.00;61487.56;5033295;28;20145;-70
2023/06/22 02:07:34;;;;;;;54.33;31.63;;;;;;;-144.87;100.00;61487.56;5017538;28;20042;-70
2023/06/22 02:10:03;;;;;;;60.38;31.33;;;;;;;-144.87;100.00;61487.56;4993331;28;20033;-70
2023/06/22 02:12:31;;;;;;;61.30;31.38;;;;;;;-144.87;100.00;61487.56;5015585;28;20046;-70
2023/06/22 02:14:57;;;;;;;50.53;27.85;;;;;;;-144.87;100.00;61487.56;5020789;28;20545;-70
2023/06/22 02:17:24;;;;;;;55.47;30.20;;;;;;;-144.87;100.00;61487.56;5004906;28;20052;-70
2023/06/22 02:19:51;;;;;;;57.88;31.73;;;;;;;-144.87;100.00;61487.56;4990767;28;20053;-69
2023/06/22 02:22:17;;;;;;;54.63;30.25;;;;;;;-144.87;100.00;61487.56;5013164;28;20033;-69
2023/06/22 02:24:44;;;;;;;46.90;26.95;;;;;;;-144.87;100.00;61487.56;5019136;28;20033;-70
2023/06/22 02:27:10;;;;;;;46.67;26.10;;;;;;;-144.87;100.00;61487.56;5013276;28;20357;-70
2023/06/22 02:29:37;;;;;;;47.38;26.27;;;;;;;-144.87;100.00;61487.56;5017861;28;20434;-70
2023/06/22 02:32:04;;;;;;;39.55;23.48;;;;;;;-144.87;100.00;61487.56;5026325;28;20037;-70
2023/06/22 02:34:30;;;;;;;41.17;23.92;;;;;;;-144.87;100.00;61487.56;5023287;28;20037;-70
2023/06/22 02:36:56;;;;;;;47.53;25.92;;;;;;;-144.87;100.00;61487.56;5024493;28;20057;-70
2023/06/22 02:39:24;;;;;;;43.58;25.67;;;;;;;-144.87;100.00;61487.56;5025621;28;20042;-71
2023/06/22 02:41:51;;;;;;;71.20;35.47;;;;;;;-144.87;100.00;61487.56;5024790;28;20037;-71
2023/06/22 02:44:18;;;;;;;75.40;39.05;;;;;;;-144.87;100.00;61487.56;5010361;28;20064;-71
2023/06/22 02:46:44;;;;;;;79.78;42.00;;;;;;;-144.87;100.00;61487.56;5023100;28;20048;-70
2023/06/22 02:49:11;;;;;;;79.85;39.67;;;;;;;-144.87;100.00;61487.56;5006591;28;20033;-71
2023/06/22 02:51:41;;;;;;;85.53;41.83;;;;;;;-144.87;100.00;61487.56;4999635;28;20030;-71
2023/06/22 02:54:08;;;;;;;76.93;40.67;;;;;;;-144.87;100.00;61487.56;5010059;28;20084;-71
2023/06/22 02:56:36;;;;;;;81.65;41.72;;;;;;;-144.87;100.00;61487.56;5016611;28;20042;-71
2023/06/22 02:59:03;;;;;;;87.57;42.10;;;;;;;-144.87;100.00;61487.56;5013290;28;20144;-71
2023/06/22 03:01:39;;;;;;;74.65;38.38;;;;;;;-144.87;100.00;61487.56;5009287;28;20025;-70
2023/06/22 03:04:08;;;;;;;72.93;37.42;;;;;;;-144.87;100.00;61487.56;5009142;28;20030;-70
2023/06/22 03:06:35;;;;;;;68.45;36.33;;;;;;;-144.87;100.00;61487.56;5014958;28;20230;-72
2023/06/22 03:09:04;;;;;;;74.68;36.58;;;;;;;-144.87;100.00;61487.56;5017873;28;20133;-72
2023/06/22 03:11:33;;;;;;;70.35;35.72;;;;;;;-144.87;100.00;61487.56;5011710;28;20040;-69
2023/06/22 03:14:00;;;;;;;59.17;31.15;;;;;;;-144.87;100.00;61487.56;5008534;28;20033;-71
2023/06/22 03:16:26;;;;;;;50.33;28.90;;;;;;;-144.87;100.00;61487.56;5014036;28;20065;-69
2023/06/22 03:18:53;;;;;;;49.75;28.00;;;;;;;-144.87;100.00;61487.56;5008257;28;20041;-70
2023/06/22 03:21:22;;;;;;;54.30;27.77;;;;;;;-144.87;100.00;61487.56;5026582;28;20038;-71
2023/06/22 03:23:48;;;;;;;62.65;29.38;;;;;;;-144.87;100.00;61487.56;5016759;28;20034;-71
2023/06/22 03:26:17;;;;;;;61.53;29.63;;;;;;;-144.87;100.00;61487.56;5010844;28;20422;-71
2023/06/22 03:28:43;;;;;;;61.05;31.77;;;;;;;-144.87;100.00;61487.56;5015652;28;20076;-71
2023/06/22 03:31:10;;;;;;;52.88;29.15;;;;;;;-144.87;100.00;61487.56;5026414;28;20128;-71
2023/06/22 03:33:38;;;;;;;79.80;38.47;;;;;;;-144.87;100.00;61487.56;5022921;28;20423;-70
2023/06/22 03:36:04;;;;;;;69.63;36.47;;;;;;;-144.87;100.00;61487.56;5010379;28;20037;-70
2023/06/22 03:38:31;;;;;;;63.80;34.42;;;;;;;-144.87;100.00;61487.56;5037081;28;20103;-70
2023/06/22 03:40:57;;;;;;;68.68;36.22;;;;;;;-144.87;100.00;61487.56;5024014;28;20034;-70
2023/06/22 03:43:25;;;;;;;67.25;37.63;;;;;;;-144.87;100.00;61487.56;5020623;28;20399;-71
2023/06/22 03:45:51;;;;;;;74.32;39.55;;;;;;;-144.87;100.00;61487.56;5014926;28;20038;-71
2023/06/22 03:48:17;;;;;;;86.13;43.97;;;;;;;-144.87;100.00;61487.56;5018274;28;20045;-71
2023/06/22 03:50:44;;;;;;;77.70;42.22;;;;;;;-144.87;100.00;61487.56;5019129;28;20041;-69
2023/06/22 03:53:10;;;;;;;76.43;40.10;;;;;;;-144.87;100.00;61487.56;5028986;28;20025;-70
2023/06/22 03:55:37;;;;;;;82.85;43.00;;;;;;;-144.87;100.00;61487.56;5031203;28;20399;-71
2023/06/22 03:58:05;;;;;;;79.75;42.40;;;;;;;-144.87;100.00;61487.56;5028371;28;20065;-70
2023/06/22 04:00:32;;;;;;;74.65;38.78;;;;;;;-144.87;100.00;61487.56;5016370;28;20053;-71
2023/06/22 04:02:59;;;;;;;102.10;49.75;;;;;;;-144.87;100.00;61487.56;5020716;28;20103;-70
2023/06/22 04:05:25;;;;;;;100.03;48.88;;;;;;;-144.87;100.00;61487.56;5016128;28;20049;-71
2023/06/22 04:07:51;;;;;;;95.63;49.15;;;;;;;-144.87;100.00;61487.56;5022206;28;20107;-71
2023/06/22 04:10:17;;;;;;;97.82;46.65;;;;;;;-144.87;100.00;61487.56;5002239;28;20041;-71
2023/06/22 04:12:44;;;;;;;73.30;41.75;;;;;;;-144.87;100.00;61487.56;5017243;28;20378;-71
2023/06/22 04:15:11;;;;;;;72.90;40.47;;;;;;;-144.87;100.00;61487.56;5025765;28;20076;-71
2023/06/22 04:17:38;;;;;;;63.53;38.63;;;;;;;-144.87;100.00;61487.56;5015617;28;20095;-71
2023/06/22 04:20:05;;;;;;;72.13;40.67;;;;;;;-144.87;100.00;61487.56;5018616;28;20037;-72
2023/06/22 04:22:31;;;;;;;85.65;44.10;;;;;;;-144.87;100.00;61487.56;5014824;28;20472;-71
2023/06/22 04:24:57;;;;;;;88.13;47.83;;;;;;;-144.87;100.00;61487.56;5022305;28;20092;-71
2023/06/22 04:27:23;;;;;;;82.40;45.97;;;;;;;-144.87;100.00;61487.56;5015922;28;20049;-70
2023/06/22 04:29:51;;;;;;;93.90;49.58;;;;;;;-144.87;100.00;61487.56;5003195;28;20037;-71
2023/06/22 04:32:17;;;;;;;104.10;54.33;;;;;;;-144.87;100.00;61487.56;5000971;28;20079;-70
2023/06/22 04:34:43;;;;;;;97.43;50.53;;;;;;;-144.87;100.00;61487.56;5024052;28;20032;-68
2023/06/22 04:37:15;;;;;;;84.40;48.08;;;;;;;-144.87;100.00;61487.56;5018203;28;20054;-70
2023/06/22 04:39:42;;;;;;;79.38;46.10;;;;;;;-144.87;100.00;61487.56;5019815;28;20045;-71
2023/06/22 04:42:09;;;;;;;77.07;42.55;;;;;;;-144.87;100.00;61487.56;5018134;28;20105;-71
2023/06/22 04:44:35;;;;;;;54.80;36.40;;;;;;;-144.87;100.00;61487.56;5019902;28;20046;-71
2023/06/22 04:47:08;;;;;;;49.78;33.33;;;;;;;-144.87;100.00;61487.56;5019933;28;20553;-70
2023/06/22 04:49:35;;;;;;;45.95;31.42;;;;;;;-144.87;100.00;61487.56;5020100;28;20685;-70
2023/06/22 04:52:06;;;;;;;43.33;30.35;;;;;;;-144.87;100.00;61487.56;5019701;28;20053;-70
2023/06/22 04:54:34;;;;;;;40.30;29.50;;;;;;;-144.87;100.00;61487.56;5016869;28;20121;-70
2023/06/22 04:57:01;;;;;;;47.38;30.95;;;;;;;-144.87;100.00;61487.56;5017156;28;20091;-70
2023/06/22 04:59:29;;;;;;;37.90;28.55;;;;;;;-144.87;100.00;61487.56;5018542;28;20034;-71
2023/06/22 05:02:00;;;;;;;38.65;28.70;;;;;;;-144.87;100.00;61487.56;5014726;28;20091;-71
2023/06/22 05:04:28;;;;;;;30.40;24.60;;;;;;;-144.87;100.00;61487.56;5004025;28;20057;-70
2023/06/22 05:06:54;;;;;;;36.83;25.92;;;;;;;-144.87;100.00;61487.56;5010347;28;20041;-69
2023/06/22 05:09:22;;;;;;;34.97;25.45;;;;;;;-144.87;100.00;61487.56;5009722;28;20441;-71
2023/06/22 05:11:48;;;;;;;35.78;26.63;;;;;;;-144.87;100.00;61487.56;5009752;28;20060;-70
2023/06/22 05:14:14;;;;;;;37.95;28.23;;;;;;;-144.87;100.00;61487.56;5013332;28;20470;-70
2023/06/22 05:16:42;;;;;;;42.67;28.17;;;;;;;-144.87;100.00;61487.56;5021060;28;20034;-83
2023/06/22 05:19:09;;;;;;;39.75;30.40;;;;;;;-144.87;100.00;61487.56;4997752;28;20523;-70
2023/06/22 05:21:35;;;;;;;40.38;29.20;;;;;;;-144.87;100.00;61487.56;4995352;28;20077;-70
2023/06/22 05:24:02;;;;;;;41.28;30.52;;;;;;;-144.87;100.00;61487.56;4994155;28;20065;-70
2023/06/22 05:26:33;;;;;;;44.63;31.15;;;;;;;-144.87;100.00;61487.56;4985066;28;20044;-70
2023/06/22 05:29:02;;;;;;;41.65;29.45;;;;;;;-144.87;100.00;61487.56;4975321;28;20110;-71
2023/06/22 05:31:29;;;;;;;41.17;29.42;;;;;;;-144.87;100.00;61487.56;4998808;28;20038;-70
2023/06/22 05:33:55;;;;;;;39.80;32.05;;;;;;;-144.87;100.00;61487.56;5003496;28;20042;-70
2023/06/22 05:36:25;;;;;;;42.55;31.23;;;;;;;-144.87;100.00;61487.56;5006059;28;20030;-69
2023/06/22 05:38:52;;;;;;;39.40;30.48;;;;;;;-144.87;100.00;61487.56;5001682;28;20038;-70
2023/06/22 05:41:18;;;;;;;42.78;30.75;;;;;;;-144.87;100.00;61487.56;4998143;28;20010;-69
2023/06/22 05:43:48;;;;;;;45.08;30.73;;;;;;;-144.87;100.00;61487.56;4998986;28;20052;-69
2023/06/22 05:46:14;;;;;;;42.58;32.90;;;;;;;-144.87;100.00;61487.56;5009127;28;20041;-67
2023/06/22 05:48:40;;;;;;;42.45;32.75;;;;;;;-144.87;100.00;61487.56;4996043;28;20105;-67
2023/06/22 05:51:07;;;;;;;39.63;30.65;;;;;;;-144.87;100.00;61487.56;4993371;28;20030;-68
2023/06/22 05:53:33;;;;;;;43.15;33.22;;;;;;;-144.87;100.00;61487.56;4996690;28;20713;-69
2023/06/22 05:55:59;;;;;;;42.83;32.03;;;;;;;-144.87;100.00;61487.56;4991078;28;20050;-69
2023/06/22 05:58:25;;;;;;;42.55;32.95;;;;;;;-144.87;100.00;61487.56;4971348;28;20631;-68
2023/06/22 06:00:52;;;;;;;45.45;33.08;;;;;;;-144.87;100.00;61487.56;4993102;28;20476;-69
2023/06/22 06:03:18;;;;;;;46.83;34.38;;;;;;;-144.87;100.00;61487.56;4983055;28;20114;-69
2023/06/22 06:05:45;;;;;;;47.63;36.25;;;;;;;-144.87;100.00;61487.56;4996811;28;20500;-69
2023/06/22 06:08:12;;;;;;;53.58;36.60;;;;;;;-144.87;100.00;61487.56;5000676;28;20758;-69
2023/06/22 06:10:39;;;;;;;48.13;35.47;;;;;;;-144.87;100.00;61487.56;4983097;28;20188;-70
2023/06/22 06:13:05;;;;;;;45.40;33.95;;;;;;;-144.87;100.00;61487.56;4984154;28;20074;-69
2023/06/22 06:15:32;;;;;;;46.88;34.67;;;;;;;-144.87;100.00;61487.56;4981883;28;20030;-68
2023/06/22 06:17:59;;;;;;;44.90;33.40;;;;;;;-144.87;100.00;61487.56;4984045;28;20050;-69
2023/06/22 06:20:27;;;;;;;44.08;33.80;;;;;;;-144.87;100.00;61487.56;4979365;28;20034;-69
2023/06/22 06:22:54;;;;;;;53.00;34.47;;;;;;;-144.87;100.00;61487.56;4984819;28;20662;-70
2023/06/22 06:25:21;;;;;;;47.72;33.53;;;;;;;-144.87;100.00;61487.56;4997010;28;20133;-69
2023/06/22 06:27:49;;;;;;;47.55;34.22;;;;;;;-144.87;100.00;61487.56;4993975;28;20046;-70
2023/06/22 06:30:16;;;;;;;46.72;34.63;;;;;;;-144.87;100.00;61487.56;4999191;28;20607;-69
2023/06/22 06:32:45;;;;;;;43.15;33.53;;;;;;;-144.87;100.00;61487.56;4980324;28;20038;-70
2023/06/22 06:35:12;;;;;;;46.28;35.70;;;;;;;-144.87;100.00;61487.56;4986309;28;20031;-70
2023/06/22 06:37:40;;;;;;;43.55;33.33;;;;;;;-144.87;100.00;61487.56;4997793;28;20041;-69
2023/06/22 06:40:11;;;;;;;45.50;33.83;;;;;;;-144.87;100.00;61487.56;4996083;28;20415;-71
2023/06/22 06:42:40;;;;;;;;;;;;;;;-144.87;100.00;61487.56;4988312;28;20077;-70
2023/06/22 06:45:10;;;;;;;42.20;32.08;;;;;;;-144.87;100.00;61487.56;4988135;28;20382;-69
2023/06/22 06:47:36;;;;;;;42.25;32.63;;;;;;;-144.87;100.00;61487.56;4967714;28;20049;-69
2023/06/22 06:50:04;;;;;;;41.55;31.33;;;;;;;-144.87;100.00;61487.56;4978923;28;20045;-70
2023/06/22 06:52:30;;;;;;;42.55;31.15;;;;;;;-144.87;100.00;61487.56;4982098;28;20026;-69
2023/06/22 06:54:56;;;;;;;37.90;31.13;;;;;;;-144.87;100.00;61487.56;4983338;28;20030;-70
2023/06/22 06:57:23;;;;;;;39.83;29.55;;;;;;;-144.87;100.00;61487.56;4985215;28;20061;-69
2023/06/22 06:59:49;;;;;;;38.60;30.35;;;;;;;-144.87;100.00;61487.56;4989138;28;20042;-69
2023/06/22 07:02:16;;;;;;;37.75;28.40;;;;;;;-144.87;100.00;61487.56;5003575;28;20034;-69
2023/06/22 07:04:42;;;;;;;36.97;28.98;;;;;;;-144.87;100.00;61487.56;5010020;28;20100;-69
2023/06/22 07:07:09;;;;;;;37.17;27.33;;;;;;;-144.87;100.00;61487.56;4996723;28;20037;-70
2023/06/22 07:09:35;;;;;;;39.08;27.35;;;;;;;-144.87;100.00;61487.56;4997043;28;20037;-70
2023/06/22 07:12:01;;;;;;;32.30;26.13;;;;;;;-144.87;100.00;61487.56;4998919;28;20103;-69
2023/06/22 07:14:27;;;;;;;34.00;25.80;;;;;;;-144.87;100.00;61487.56;5002025;28;20038;-68
2023/06/22 07:16:54;;;;;;;33.80;26.33;;;;;;;-144.87;100.00;61487.56;4999691;28;20077;-69
2023/06/22 07:19:26;;;;;;;32.38;25.50;;;;;;;-144.87;100.00;61487.56;5005454;28;20064;-68
2023/06/22 07:21:54;;;;;;;35.83;25.10;;;;;;;-144.87;100.00;61487.56;4991532;28;20034;-69
2023/06/22 07:24:24;;;;;;;32.05;24.42;;;;;;;-144.87;100.00;61487.56;4996543;28;20569;-69
2023/06/22 07:26:50;;;;;;;31.83;24.38;;;;;;;-144.87;100.00;61487.56;4976007;28;20047;-69
2023/06/22 07:29:23;;;;;;;31.25;24.48;;;;;;;-144.87;100.00;61487.56;4989573;28;20069;-69
2023/06/22 07:31:56;;;;;;;28.90;23.00;;;;;;;-144.87;100.00;61487.56;4988931;28;20038;-68
2023/06/22 07:34:22;;;;;;;29.63;23.88;;;;;;;-144.87;100.00;61487.56;4992840;28;20050;-69
2023/06/22 07:36:48;;;;;;;27.67;22.92;;;;;;;-144.87;100.00;61487.56;4997781;28;20072;-69
2023/06/22 07:39:15;;;;;;;27.98;21.30;;;;;;;-144.87;100.00;61487.56;5003853;28;20031;-69
2023/06/22 07:41:41;;;;;;;33.22;22.70;;;;;;;-144.87;100.00;61487.56;4991094;28;20049;-69
2023/06/22 07:44:07;;;;;;;29.55;21.70;;;;;;;-144.87;100.00;61487.56;5000330;28;20061;-69
2023/06/22 07:46:34;;;;;;;26.35;22.35;;;;;;;-144.87;100.00;61487.56;4983430;28;20125;-69
2023/06/22 07:49:01;;;;;;;34.40;22.17;;;;;;;-144.87;100.00;61487.56;5002092;28;20054;-69
2023/06/22 07:51:27;;;;;;;32.38;20.08;;;;;;;-144.87;100.00;61487.56;4984132;28;20042;-69
2023/06/22 07:53:53;;;;;;;34.95;19.67;;;;;;;-144.87;100.00;61487.56;4985134;28;20052;-69
2023/06/22 07:56:20;;;;;;;25.73;19.27;;;;;;;-144.87;100.00;61487.56;4998869;28;20038;-71
2023/06/22 07:58:47;;;;;;;24.52;19.13;;;;;;;-144.87;100.00;61487.56;5006639;28;20564;-69
2023/06/22 08:01:15;;;;;;;28.42;18.77;;;;;;;-144.87;100.00;61487.56;4994019;28;20955;-68
2023/06/22 08:03:41;;;;;;;26.35;17.55;;;;;;;-144.87;100.00;61487.56;4997457;28;20547;-71
2023/06/22 08:06:09;;;;;;;20.65;17.30;;;;;;;-144.87;100.00;61487.56;4997007;28;20120;-70
2023/06/22 08:08:36;;;;;;;22.75;16.98;;;;;;;-144.87;100.00;61487.56;4978823;28;20049;-68
2023/06/22 08:11:02;;;;;;;31.83;17.52;;;;;;;-144.87;100.00;61487.56;4990591;28;20026;-69
2023/06/22 08:13:28;;;;;;;28.73;18.38;;;;;;;-144.87;100.00;61487.56;4980377;28;20049;-68
2023/06/22 08:15:55;;;;;;;24.73;19.15;;;;;;;-144.87;100.00;61487.56;4997039;28;20112;-71
2023/06/22 08:18:21;;;;;;;22.40;16.15;;;;;;;-144.87;100.00;61487.56;4998477;28;20064;-71
2023/06/22 08:20:47;;;;;;;22.95;14.82;;;;;;;-144.87;100.00;61487.56;5009718;28;20120;-69
2023/06/22 08:23:13;;;;;;;21.48;15.85;;;;;;;-144.87;100.00;61487.56;5006256;28;20049;-69
2023/06/22 08:25:40;;;;;;;25.88;15.13;;;;;;;-144.87;100.00;61487.56;4996915;28;20129;-69
2023/06/22 08:28:07;;;;;;;29.35;14.32;;;;;;;-144.87;100.00;61487.56;5003858;28;20128;-69
2023/06/22 08:30:33;;;;;;;22.92;14.45;;;;;;;-144.87;100.00;61487.56;4990570;28;20065;-70
2023/06/22 08:32:59;;;;;;;32.50;16.20;;;;;;;-144.87;100.00;61487.56;4999808;28;20086;-69
2023/06/22 08:35:25;;;;;;;22.80;16.08;;;;;;;-144.87;100.00;61487.56;4990416;28;20073;-71
2023/06/22 08:37:55;;;;;;;21.92;14.07;;;;;;;-144.87;100.00;61487.56;5006344;28;20088;-68
2023/06/22 08:40:22;;;;;;;21.08;15.32;;;;;;;-144.87;100.00;61487.56;4994264;28;20042;-69
2023/06/22 08:42:49;;;;;;;21.27;15.05;;;;;;;-144.87;100.00;61487.56;4998214;28;20026;-69
2023/06/22 08:45:15;;;;;;;22.80;15.65;;;;;;;-144.87;100.00;61487.56;4995794;28;20031;-69
2023/06/22 08:47:42;;;;;;;19.10;13.80;;;;;;;-144.87;100.00;61487.56;4994039;28;20037;-69
2023/06/22 08:50:10;;;;;;;21.75;14.13;;;;;;;-144.87;100.00;61487.56;4998428;28;20046;-69
2023/06/22 08:52:37;;;;;;;21.50;15.43;;;;;;;-144.87;100.00;61487.56;4985613;28;20045;-69
2023/06/22 08:55:03;;;;;;;19.42;14.23;;;;;;;-144.87;100.00;61487.56;4988610;28;20398;-69
2023/06/22 08:57:33;;;;;;;20.88;15.48;;;;;;;-144.87;100.00;61487.56;4991069;28;20034;-69
2023/06/22 08:59:59;;;;;;;20.25;15.02;;;;;;;-144.87;100.00;61487.56;4998937;28;20236;-68
2023/06/22 09:02:30;;;;;;;20.38;15.85;;;;;;;-144.87;100.00;61487.56;4972354;28;20044;-69
2023/06/22 09:04:59;;;;;;;;;;;;;;;-144.87;100.00;61487.56;4977635;28;20101;-68
2023/06/22 09:07:25;;;;;;;19.25;14.45;;;;;;;-144.87;100.00;61487.56;5002164;28;19949;-68
2023/06/22 09:09:52;;;;;;;18.98;16.42;;;;;;;-144.87;100.00;61487.56;5004522;28;20029;-70
2023/06/22 09:12:22;;;;;;;22.13;16.25;;;;;;;-144.87;100.00;61487.56;4990336;28;20042;-71
2023/06/22 09:14:48;;;;;;;21.77;16.45;;;;;;;-144.87;100.00;61487.56;5007471;28;20078;-69
2023/06/22 09:17:15;;;;;;;24.88;16.48;;;;;;;-144.87;100.00;61487.56;5012362;28;20068;-69
2023/06/22 09:19:41;;;;;;;21.02;16.98;;;;;;;-144.87;100.00;61487.56;5020811;28;20057;-69
2023/06/22 09:22:07;;;;;;;18.88;15.35;;;;;;;-144.87;100.00;61487.56;5018901;28;20055;-69
2023/06/22 09:24:34;;;;;;;17.38;14.15;;;;;;;-144.87;100.00;61487.56;5013584;28;20647;-69
2023/06/22 09:27:00;;;;;;;17.75;14.93;;;;;;;-144.87;100.00;61487.56;5009694;28;20120;-70
2023/06/22 09:29:27;;;;;;;16.00;14.07;;;;;;;-144.87;100.00;61487.56;5016677;28;20038;-70
2023/06/22 09:31:53;;;;;;;17.60;14.30;;;;;;;-144.87;100.00;61487.56;5018771;28;20403;-70
2023/06/22 09:34:20;;;;;;;17.02;14.35;;;;;;;-144.87;100.00;61487.56;5026408;28;20069;-70
2023/06/22 09:36:47;;;;;;;20.35;15.27;;;;;;;-144.87;100.00;61487.56;5016587;28;20049;-70
2023/06/22 09:39:13;;;;;;;19.40;16.35;;;;;;;-144.87;100.00;61487.56;5025542;28;20139;-68
2023/06/22 09:41:39;;;;;;;18.30;14.30;;;;;;;-144.87;100.00;61487.56;5018906;28;20038;-67
2023/06/22 09:44:06;;;;;;;20.67;15.20;;;;;;;-144.87;100.00;61487.56;5021642;28;20032;-70
2023/06/22 09:46:32;;;;;;;20.25;14.95;;;;;;;-144.87;100.00;61487.56;5012452;28;20044;-69
2023/06/22 09:48:58;;;;;;;16.60;13.57;;;;;;;-144.87;100.00;61487.56;5024232;28;20034;-68
2023/06/22 09:51:25;;;;;;;16.58;11.18;;;;;;;-144.87;100.00;61487.56;5017052;28;20045;-68
2023/06/22 09:53:53;;;;;;;15.93;11.95;;;;;;;-144.87;100.00;61487.56;5023383;28;20224;-69
2023/06/22 09:56:20;;;;;;;17.70;11.05;;;;;;;-144.87;100.00;61487.56;5013298;28;20033;-69
2023/06/22 09:58:47;;;;;;;12.88;9.45;;;;;;;-144.87;100.00;61487.56;5023375;28;20034;-70
2023/06/22 10:01:16;;;;;;;14.82;9.57;;;;;;;-144.87;100.00;61487.56;5011393;28;20042;-69
2023/06/22 10:03:43;;;;;;;15.70;9.45;;;;;;;-144.87;100.00;61487.56;5018144;28;20257;-70
2023/06/22 10:06:09;;;;;;;14.93;9.60;;;;;;;-144.87;100.00;61487.56;5009774;28;20041;-69
2023/06/22 10:08:36;;;;;;;11.90;8.48;;;;;;;-144.87;100.00;61487.56;5018893;28;20049;-70
2023/06/22 10:11:03;;;;;;;11.43;8.00;;;;;;;-144.87;100.00;61487.56;5020938;28;20037;-69
2023/06/22 10:13:29;;;;;;;15.82;8.57;;;;;;;-144.87;100.00;61487.56;5017708;28;20063;-69
2023/06/22 10:15:57;;;;;;;11.77;7.75;;;;;;;-144.87;100.00;61487.56;5012912;28;20038;-68
2023/06/22 10:18:23;;;;;;;14.02;8.88;;;;;;;-144.87;100.00;61487.56;5038648;28;20061;-70
2023/06/22 10:20:53;;;;;;;12.48;8.70;;;;;;;-144.87;100.00;61487.56;5015095;28;20034;-71
2023/06/22 10:23:20;;;;;;;15.95;8.15;;;;;;;-144.87;100.00;61487.56;5020407;28;20128;-69
2023/06/22 10:25:47;;;;;;;10.98;7.72;;;;;;;-144.87;100.00;61487.56;5010481;28;20042;-69
2023/06/22 10:28:13;;;;;;;13.55;7.97;;;;;;;-144.87;100.00;61487.56;5036473;28;20145;-68
2023/06/22 10:30:43;;;;;;;11.80;9.02;;;;;;;-144.87;100.00;61487.56;5031874;28;20037;-69
2023/06/22 10:33:10;;;;;;;12.38;7.85;;;;;;;-144.87;100.00;61487.56;5032609;28;20049;-69
2023/06/22 10:35:37;;;;;;;11.15;7.82;;;;;;;-144.87;100.00;61487.56;5025615;28;20034;-68
2023/06/22 10:38:04;;;;;;;10.60;7.25;;;;;;;-144.87;100.00;61487.56;5031229;28;20041;-69
2023/06/22 10:40:30;;;;;;;13.30;7.90;;;;;;;-144.87;100.00;61487.56;5023743;28;20049;-69
2023/06/22 10:42:57;;;;;;;13.68;7.75;;;;;;;-144.87;100.00;61487.56;5020335;28;20032;-68
2023/06/22 10:45:23;;;;;;;13.05;8.00;;;;;;;-144.87;100.00;61487.56;5017671;28;20026;-68
2023/06/22 10:47:49;;;;;;;11.30;7.28;;;;;;;-144.87;100.00;61487.56;5018855;28;20158;-68
2023/06/22 10:50:16;;;;;;;10.07;7.95;;;;;;;-144.87;100.00;61487.56;5023328;28;20129;-69
2023/06/22 10:52:42;;;;;;;18.67;9.90;;;;;;;-144.87;100.00;61487.56;5018904;28;20049;-69
2023/06/22 10:55:09;;;;;;;17.08;9.73;;;;;;;-144.87;100.00;61487.56;5032555;28;20037;-70
2023/06/22 10:57:36;;;;;;;13.18;10.02;;;;;;;-144.87;100.00;61487.56;5012578;28;20084;-68